Time;durP1;ratioP1;P1;durP2;ratioP2;P2;SDS_P1;SDS_P2;PMS_P1;PMS_P2;Temp;Humidity;BMP_temperature;BMP_pressure;BME280_temperature;BME280_humidity;BME280_pressure;Samples;Min_cycle;Max_cycle;Signal;HPM_P1;HPM_P2
2023/12/14 00:01:27;;;;;;;;;;;;;;;19.42;48.60;95857.02;618993;229;64646;-70
2023/12/14 00:03:54;;;;;;;;;;;;;;;19.41;48.62;95855.45;618975;229;62209;-70
2023/12/14 00:06:22;;;;;;;;;;;;;;;19.43;48.60;95852.51;619089;229;62143;-70
2023/12/14 00:08:49;;;;;;;;;;;;;;;19.42;48.67;95862.34;619002;229;64641;-70
2023/12/14 00:11:17;;;;;;;;;;;;;;;19.43;48.69;95860.50;618998;229;64533;-70
2023/12/14 00:13:44;;;;;;;;;;;;;;;19.42;48.63;95873.00;619030;229;64084;-70
2023/12/14 00:16:12;;;;;;;;;;;;;;;19.41;48.71;95860.77;618976;229;64577;-70
2023/12/14 00:18:39;;;;;;;;;;;;;;;19.43;48.70;95871.95;619017;229;65960;-70
2023/12/14 00:21:07;;;;;;;;;;;;;;;19.41;48.64;95859.98;619055;229;64251;-70
2023/12/14 00:23:35;;;;;;;;;;;;;;;19.42;48.71;95857.02;619012;229;64851;-70
2023/12/14 00:26:03;;;;;;;;;;;;;;;19.43;48.63;95868.49;619028;229;64332;-70
2023/12/14 00:28:30;;;;;;;;;;;;;;;19.42;48.59;95874.88;618932;227;61870;-70
2023/12/14 00:30:58;;;;;;;;;;;;;;;19.42;48.63;95870.34;619000;229;62763;-70
2023/12/14 00:33:25;;;;;;;;;;;;;;;19.40;48.62;95861.86;619029;229;65155;-70
2023/12/14 00:35:53;;;;;;;;;;;;;;;19.43;48.67;95869.28;619040;229;64153;-70
2023/12/14 00:38:20;;;;;;;;;;;;;;;19.41;48.60;95859.98;618987;229;63535;-70
2023/12/14 00:40:48;;;;;;;;;;;;;;;19.43;48.66;95863.16;618993;229;64462;-70
2023/12/14 00:43:15;;;;;;;;;;;;;;;19.41;48.60;95860.77;619001;229;62015;-72
2023/12/14 00:45:43;;;;;;;;;;;;;;;19.43;48.63;95863.16;619042;229;64653;-71
2023/12/14 00:48:10;;;;;;;;;;;;;;;19.41;48.69;95859.98;619014;229;64331;-71
2023/12/14 00:50:38;;;;;;;;;;;;;;;19.42;48.68;95861.56;619010;229;64162;-70
2023/12/14 00:53:05;;;;;;;;;;;;;;;19.44;48.63;95862.08;619009;229;64397;-70
2023/12/14 00:55:33;;;;;;;;;;;;;;;19.43;48.76;95863.95;618993;229;64419;-70
2023/12/14 00:58:00;;;;;;;;;;;;;;;19.42;48.66;95867.67;619042;229;64300;-70
2023/12/14 01:00:28;;;;;;;;;;;;;;;19.43;48.69;95866.61;619019;229;64573;-70
2023/12/14 01:02:56;;;;;;;;;;;;;;;19.43;48.59;95868.49;618989;229;64432;-70
2023/12/14 01:05:23;;;;;;;;;;;;;;;19.43;48.65;95857.84;619030;229;64152;-70
2023/12/14 01:07:51;;;;;;;;;;;;;;;19.43;48.70;95855.95;618987;229;64670;-70
2023/12/14 01:10:19;;;;;;;;;;;;;;;19.42;48.66;95858.90;618996;229;64426;-70
2023/12/14 01:12:46;;;;;;;;;;;;;;;19.43;48.60;95863.16;619024;229;64217;-70
2023/12/14 01:15:13;;;;;;;;;;;;;;;19.42;48.59;95851.69;618999;229;64625;-70
2023/12/14 01:17:41;;;;;;;;;;;;;;;19.41;48.61;95844.79;618983;229;64500;-70
2023/12/14 01:20:09;;;;;;;;;;;;;;;19.42;48.55;95842.91;619012;229;62158;-70
2023/12/14 01:22:37;;;;;;;;;;;;;;;19.42;48.65;95846.36;619051;229;62413;-70
2023/12/14 01:25:05;;;;;;;;;;;;;;;19.43;48.66;95847.17;619032;229;64509;-70
2023/12/14 01:27:32;;;;;;;;;;;;;;;19.40;48.65;95848.55;619023;229;64199;-70
2023/12/14 01:30:00;;;;;;;;;;;;;;;19.41;48.65;95844.00;618934;227;64654;-70
2023/12/14 01:32:27;;;;;;;;;;;;;;;19.41;48.64;95836.80;618975;229;64579;-70
2023/12/14 01:34:54;;;;;;;;;;;;;;;19.41;48.68;95825.36;619021;229;64168;-70
2023/12/14 01:37:22;;;;;;;;;;;;;;;19.42;48.66;95829.59;618978;229;64544;-70
2023/12/14 01:39:49;;;;;;;;;;;;;;;19.41;48.65;95838.67;618917;229;67406;-70
2023/12/14 01:42:17;;;;;;;;;;;;;;;19.41;48.70;95830.68;618944;229;65000;-70
2023/12/14 01:44:44;;;;;;;;;;;;;;;19.42;48.55;95829.59;618924;229;62570;-70
2023/12/14 01:47:12;;;;;;;;;;;;;;;19.42;48.70;95827.71;618918;229;63073;-70
2023/12/14 01:49:41;;;;;;;;;;;;;;;19.39;48.72;95809.64;618998;229;63078;-70
2023/12/14 01:52:09;;;;;;;;;;;;;;;19.41;48.71;95820.81;618815;229;62558;-70
2023/12/14 01:54:36;;;;;;;;;;;;;;;19.40;48.69;95819.23;618921;229;63059;-70
2023/12/14 01:57:04;;;;;;;;;;;;;;;19.40;48.69;95821.91;618961;229;63030;-71
2023/12/14 01:59:31;;;;;;;;;;;;;;;19.42;48.71;95829.59;618927;229;62448;-70
2023/12/14 02:02:01;;;;;;;;;;;;;;;19.40;48.67;95826.45;618944;229;63124;-70
2023/12/14 02:04:28;;;;;;;;;;;;;;;19.41;48.71;95820.02;618926;229;64919;-70
2023/12/14 02:06:56;;;;;;;;;;;;;;;19.40;48.70;95827.23;618947;229;62468;-71
2023/12/14 02:09:24;;;;;;;;;;;;;;;19.41;48.69;95812.03;618915;229;63078;-71
2023/12/14 02:11:52;;;;;;;;;;;;;;;19.43;48.67;95831.19;618904;229;65541;-70
2023/12/14 02:14:21;;;;;;;;;;;;;;;19.40;48.65;95810.46;618987;229;64553;-70
2023/12/14 02:16:48;;;;;;;;;;;;;;;19.39;48.67;95814.97;618930;229;63251;-70
2023/12/14 02:19:16;;;;;;;;;;;;;;;19.40;48.69;95811.25;618967;229;62964;-70
2023/12/14 02:21:43;;;;;;;;;;;;;;;19.41;48.76;95812.82;618974;229;64711;-71
2023/12/14 02:24:11;;;;;;;;;;;;;;;19.41;48.69;95809.37;618964;229;66413;-70
2023/12/14 02:26:38;;;;;;;;;;;;;;;19.40;48.69;95826.45;618996;229;64991;-70
2023/12/14 02:29:06;;;;;;;;;;;;;;;19.41;48.69;95812.03;618920;227;64745;-70
2023/12/14 02:31:33;;;;;;;;;;;;;;;19.39;48.69;95803.53;618928;229;64959;-70
2023/12/14 02:34:01;;;;;;;;;;;;;;;19.39;48.67;95793.66;618960;229;65017;-70
2023/12/14 02:36:28;;;;;;;;;;;;;;;19.41;48.67;95806.70;618924;229;64539;-70
2023/12/14 02:38:56;;;;;;;;;;;;;;;19.40;48.62;95800.59;619016;229;65457;-71
2023/12/14 02:41:23;;;;;;;;;;;;;;;19.41;48.67;95804.04;618948;229;65054;-70
2023/12/14 02:43:51;;;;;;;;;;;;;;;19.41;48.71;95796.05;618949;229;64574;-70
2023/12/14 02:46:18;;;;;;;;;;;;;;;19.41;48.61;95788.05;618937;229;65542;-70
2023/12/14 02:48:46;;;;;;;;;;;;;;;19.41;48.65;95778.19;618968;229;64965;-70
2023/12/14 02:51:14;;;;;;;;;;;;;;;19.39;48.62;95788.33;619024;229;64406;-70
2023/12/14 02:53:42;;;;;;;;;;;;;;;19.41;48.61;95786.17;618944;229;63272;-70
2023/12/14 02:56:11;;;;;;;;;;;;;;;19.42;48.62;95784.30;618985;229;63004;-71
2023/12/14 02:58:38;;;;;;;;;;;;;;;19.39;48.62;95793.66;618932;229;64814;-70
2023/12/14 03:01:06;;;;;;;;;;;;;;;19.41;48.62;95785.39;618900;229;65436;-70
2023/12/14 03:03:33;;;;;;;;;;;;;;;19.39;48.66;95787.55;618976;229;64837;-70
2023/12/14 03:06:01;;;;;;;;;;;;;;;19.39;48.70;95782.22;619019;229;64561;-70
2023/12/14 03:08:28;;;;;;;;;;;;;;;19.39;48.65;95791.00;618923;229;63473;-70
2023/12/14 03:10:57;;;;;;;;;;;;;;;19.38;48.64;95784.09;618982;229;62904;-70
2023/12/14 03:13:24;;;;;;;;;;;;;;;19.40;48.70;95795.27;618915;229;64754;-70
2023/12/14 03:15:52;;;;;;;;;;;;;;;19.41;48.67;95798.71;618958;229;65441;-70
2023/12/14 03:18:19;;;;;;;;;;;;;;;19.41;48.64;95788.05;619012;229;64895;-70
2023/12/14 03:20:47;;;;;;;;;;;;;;;19.40;48.65;95784.61;618949;229;64599;-70
2023/12/14 03:23:14;;;;;;;;;;;;;;;19.38;48.66;95781.43;618921;229;65332;-70
2023/12/14 03:25:42;;;;;;;;;;;;;;;19.40;48.78;95783.82;618919;229;65645;-70
2023/12/14 03:28:09;;;;;;;;;;;;;;;19.39;48.65;95787.55;618918;229;65927;-70
2023/12/14 03:30:37;;;;;;;;;;;;;;;19.41;48.69;95796.83;618952;227;66325;-70
2023/12/14 03:33:06;;;;;;;;;;;;;;;19.39;48.69;95785.66;618927;229;65979;-70
2023/12/14 03:35:33;;;;;;;;;;;;;;;19.40;48.65;95779.28;618958;229;64672;-70
2023/12/14 03:38:01;;;;;;;;;;;;;;;19.40;48.71;95778.48;618932;229;65433;-70
2023/12/14 03:40:28;;;;;;;;;;;;;;;19.38;48.72;95780.64;618915;229;62932;-70
2023/12/14 03:42:56;;;;;;;;;;;;;;;19.40;48.68;95789.93;619023;229;62493;-70
2023/12/14 03:45:23;;;;;;;;;;;;;;;19.40;48.73;95797.92;618948;229;62561;-70
2023/12/14 03:47:51;;;;;;;;;;;;;;;19.39;48.69;95798.20;618943;229;62929;-71
2023/12/14 03:50:18;;;;;;;;;;;;;;;19.40;48.72;95794.48;618916;229;64415;-70
2023/12/14 03:52:46;;;;;;;;;;;;;;;19.38;48.72;95783.31;618915;229;65689;-70
2023/12/14 03:55:15;;;;;;;;;;;;;;;19.39;48.71;95787.55;618995;229;63253;-70
2023/12/14 03:57:43;;;;;;;;;;;;;;;19.38;48.70;95796.63;618940;229;65643;-71
2023/12/14 04:00:12;;;;;;;;;;;;;;;19.38;48.66;95794.75;618928;229;65629;-70
2023/12/14 04:02:40;;;;;;;;;;;;;;;19.36;48.69;95782.80;615438;229;63029;-70
2023/12/14 04:05:11;;;;;;;;;;;;;;;19.38;48.70;95786.76;618743;229;62534;-70
2023/12/14 04:07:40;;;;;;;;;;;;;;;19.39;48.69;95782.22;618757;229;65493;-70
2023/12/14 04:10:11;;;;;;;;;;;;;;;19.37;48.65;95795.84;618785;229;65191;-70
2023/12/14 04:12:39;;;;;;;;;;;;;;;19.40;48.71;95799.80;618726;229;64642;-70
2023/12/14 04:15:07;;;;;;;;;;;;;;;19.37;48.71;95795.03;618685;229;65200;-70
2023/12/14 04:17:35;;;;;;;;;;;;;;;19.38;48.71;95789.42;618746;229;66159;-70
2023/12/14 04:20:03;;;;;;;;;;;;;;;19.40;48.69;95797.14;618727;229;62373;-70
2023/12/14 04:22:31;;;;;;;;;;;;;;;19.39;48.73;95795.53;618788;229;65635;-70
2023/12/14 04:24:58;;;;;;;;;;;;;;;19.38;48.65;95799.30;618722;229;65253;-70
2023/12/14 04:27:28;;;;;;;;;;;;;;;19.36;48.69;95796.13;618671;229;65617;-70
2023/12/14 04:29:55;;;;;;;;;;;;;;;19.37;48.68;95795.84;621904;227;65696;-70
2023/12/14 04:32:22;;;;;;;;;;;;;;;19.38;48.66;95791.30;624010;227;64403;-70
2023/12/14 04:34:50;;;;;;;;;;;;;;;19.40;48.74;95783.82;624033;227;64879;-70
2023/12/14 04:37:17;;;;;;;;;;;;;;;19.37;48.69;95789.70;623987;227;65167;-70
2023/12/14 04:39:45;;;;;;;;;;;;;;;19.36;48.74;95782.80;623908;227;65037;-70
2023/12/14 04:42:12;;;;;;;;;;;;;;;19.39;48.70;95780.34;623986;227;64665;-70
2023/12/14 04:44:41;;;;;;;;;;;;;;;19.36;48.68;95777.47;623944;227;66134;-70
2023/12/14 04:47:09;;;;;;;;;;;;;;;19.39;48.71;95790.21;623975;227;64954;-70
2023/12/14 04:49:36;;;;;;;;;;;;;;;19.38;48.69;95793.97;624026;227;62428;-70
2023/12/14 04:52:04;;;;;;;;;;;;;;;19.39;48.64;95791.00;623891;227;62780;-70
2023/12/14 04:54:32;;;;;;;;;;;;;;;19.37;48.63;95798.51;623946;227;65041;-70
2023/12/14 04:56:59;;;;;;;;;;;;;;;19.35;48.73;95787.34;623952;227;64562;-70
2023/12/14 04:59:26;;;;;;;;;;;;;;;19.38;48.80;95791.30;623777;227;64954;-70
2023/12/14 05:01:54;;;;;;;;;;;;;;;19.37;48.75;95800.36;624097;227;64993;-70
2023/12/14 05:04:22;;;;;;;;;;;;;;;19.37;48.74;95787.85;624133;227;64991;-70
2023/12/14 05:06:49;;;;;;;;;;;;;;;19.38;48.71;95791.30;624096;227;66676;-70
2023/12/14 05:09:17;;;;;;;;;;;;;;;19.38;48.63;95793.97;623943;227;62907;-70
2023/12/14 05:11:44;;;;;;;;;;;;;;;19.37;48.75;95790.52;623964;227;64567;-70
2023/12/14 05:14:12;;;;;;;;;;;;;;;19.40;48.70;95794.48;623943;227;63191;-70
2023/12/14 05:16:39;;;;;;;;;;;;;;;19.38;48.70;95800.08;623940;227;63798;-70
2023/12/14 05:19:07;;;;;;;;;;;;;;;19.38;48.65;95796.63;623941;227;64348;-70
2023/12/14 05:21:34;;;;;;;;;;;;;;;19.39;48.67;95803.53;623505;227;65475;-70
2023/12/14 05:24:02;;;;;;;;;;;;;;;19.38;48.70;95791.30;623961;227;65253;-70
2023/12/14 05:26:30;;;;;;;;;;;;;;;19.37;48.72;95800.36;623982;227;62455;-70
2023/12/14 05:28:57;;;;;;;;;;;;;;;19.37;48.77;95800.36;622680;227;61950;-70
2023/12/14 05:31:25;;;;;;;;;;;;;;;19.38;48.83;95807.28;618720;229;62913;-70
2023/12/14 05:33:52;;;;;;;;;;;;;;;19.38;48.80;95799.30;618628;229;62398;-70
2023/12/14 05:36:20;;;;;;;;;;;;;;;19.38;48.80;95793.97;618695;229;63086;-70
2023/12/14 05:38:47;;;;;;;;;;;;;;;19.36;48.77;95788.91;618757;229;64839;-70
2023/12/14 05:41:15;;;;;;;;;;;;;;;19.36;48.85;95788.13;618665;229;64608;-70
2023/12/14 05:43:43;;;;;;;;;;;;;;;19.38;48.88;95791.30;618694;229;63320;-69
2023/12/14 05:46:12;;;;;;;;;;;;;;;19.37;48.85;95798.51;618642;229;64780;-70
2023/12/14 05:48:39;;;;;;;;;;;;;;;19.38;48.86;95792.09;618424;228;62431;-70
2023/12/14 05:51:07;;;;;;;;;;;;;;;19.37;48.92;95795.03;618726;229;63108;-70
2023/12/14 05:53:39;;;;;;;;;;;;;;;19.40;48.87;95797.14;618695;229;63220;-70
2023/12/14 05:56:03;;;;;;;;;;;;;;;19.38;48.83;95801.95;618544;228;62536;-70
2023/12/14 05:58:31;;;;;;;;;;;;;;;19.36;48.97;95783.59;618678;229;63146;-70
2023/12/14 06:00:58;;;;;;;;;;;;;;;19.37;48.86;95789.70;618725;229;62930;-70
2023/12/14 06:03:26;;;;;;;;;;;;;;;19.38;48.91;95792.09;618793;229;62450;-70
2023/12/14 06:05:53;;;;;;;;;;;;;;;19.36;48.97;95794.24;618774;229;65444;-71
2023/12/14 06:08:21;;;;;;;;;;;;;;;19.38;48.95;95799.30;618656;229;66130;-72
2023/12/14 06:10:48;;;;;;;;;;;;;;;19.37;48.94;95800.36;618739;229;64607;-72
2023/12/14 06:13:16;;;;;;;;;;;;;;;19.38;48.96;95792.09;618728;229;64972;-72
2023/12/14 06:15:43;;;;;;;;;;;;;;;19.37;48.96;95811.02;618720;229;65065;-72
2023/12/14 06:18:11;;;;;;;;;;;;;;;19.39;48.94;95824.84;618736;229;64662;-72
2023/12/14 06:20:38;;;;;;;;;;;;;;;19.37;48.99;95817.16;618625;229;65491;-72
2023/12/14 06:23:06;;;;;;;;;;;;;;;19.36;48.95;95822.76;618542;229;64028;-71
2023/12/14 06:25:33;;;;;;;;;;;;;;;19.36;48.93;95825.42;618708;229;62396;-71
2023/12/14 06:28:01;;;;;;;;;;;;;;;19.37;48.99;95822.48;613654;229;63106;-71
2023/12/14 06:30:28;;;;;;;;;;;;;;;19.37;48.97;95821.67;617833;227;62753;-70
2023/12/14 06:32:56;;;;;;;;;;;;;;;19.38;48.89;95817.94;614413;229;62141;-71
2023/12/14 06:35:23;;;;;;;;;;;;;;;19.37;48.98;95825.15;611915;232;63108;-69
2023/12/14 06:37:51;;;;;;;;;;;;;;;19.37;48.98;95833.14;614697;229;63076;-71
2023/12/14 06:40:19;;;;;;;;;;;;;;;19.38;49.01;95833.92;611962;232;62523;-71
2023/12/14 06:42:46;;;;;;;;;;;;;;;19.38;48.93;95829.39;611951;232;62995;-71
2023/12/14 06:45:14;;;;;;;;;;;;;;;19.39;48.89;95840.83;611934;232;65066;-71
2023/12/14 06:47:43;;;;;;;;;;;;;;;19.39;48.99;95832.84;611895;232;64581;-71
2023/12/14 06:50:11;;;;;;;;;;;;;;;19.39;49.10;95843.49;611956;232;65640;-71
2023/12/14 06:52:38;;;;;;;;;;;;;;;19.39;49.08;95840.83;611983;232;62988;-75
2023/12/14 06:55:09;;;;;;;;;;;;;;;19.40;49.05;95842.43;611983;231;45926;-75
2023/12/14 06:57:36;;;;;;;;;;;;;;;19.38;49.10;95853.36;611597;232;65540;-73
2023/12/14 07:00:04;;;;;;;;;;;;;;;19.40;49.08;95843.22;612001;232;64821;-69
2023/12/14 07:02:32;;;;;;;;;;;;;;;19.41;49.13;95854.66;611216;232;64495;-71
2023/12/14 07:05:00;;;;;;;;;;;;;;;19.41;49.20;95854.66;611972;232;63007;-72
2023/12/14 07:07:27;;;;;;;;;;;;;;;19.39;49.21;95856.81;611952;232;65564;-76
2023/12/14 07:09:55;;;;;;;;;;;;;;;19.40;49.22;95863.74;611474;229;64599;-69
2023/12/14 07:12:22;;;;;;;;;;;;;;;19.38;49.10;95858.69;611658;232;66462;-72
2023/12/14 07:14:50;;;;;;;;;;;;;;;19.36;49.10;95865.38;611869;232;64962;-69
2023/12/14 07:17:17;;;;;;;;;;;;;;;19.36;48.41;95868.05;611848;232;62398;-72
2023/12/14 07:19:45;;;;;;;;;;;;;;;19.37;48.14;95880.28;611962;232;65506;-72
2023/12/14 07:22:12;;;;;;;;;;;;;;;19.38;48.10;95881.88;611990;232;63008;-72
2023/12/14 07:24:40;;;;;;;;;;;;;;;19.37;48.04;95889.09;611865;232;62547;-72
2023/12/14 07:27:07;;;;;;;;;;;;;;;19.37;48.03;95889.09;611938;232;64808;-71
2023/12/14 07:29:35;;;;;;;;;;;;;;;19.39;48.00;95899.44;614305;230;62927;-71
2023/12/14 07:32:03;;;;;;;;;;;;;;;19.41;48.03;95907.95;616968;230;64590;-72
2023/12/14 07:34:30;;;;;;;;;;;;;;;19.41;48.06;95908.73;617066;230;64340;-72
2023/12/14 07:36:58;;;;;;;;;;;;;;;19.43;48.05;95922.56;617017;230;65002;-71
2023/12/14 07:39:26;;;;;;;;;;;;;;;19.42;48.03;95925.50;620264;227;64530;-71
2023/12/14 07:41:53;;;;;;;;;;;;;;;19.44;48.07;95936.67;624086;227;63047;-71
2023/12/14 07:44:21;;;;;;;;;;;;;;;19.41;48.08;95931.92;624073;227;66198;-72
2023/12/14 07:46:49;;;;;;;;;;;;;;;19.45;48.08;95946.24;624138;227;64424;-73
2023/12/14 07:49:20;;;;;;;;;;;;;;;19.45;48.09;95956.91;624137;227;66236;-72
2023/12/14 07:51:45;;;;;;;;;;;;;;;19.44;48.09;95952.66;624026;227;65092;-72
2023/12/14 07:54:13;;;;;;;;;;;;;;;19.43;48.09;95964.41;624093;227;64617;-72
2023/12/14 07:56:40;;;;;;;;;;;;;;;19.46;48.07;95980.61;624005;227;65496;-73
2023/12/14 07:59:09;;;;;;;;;;;;;;;19.44;48.06;95981.97;624136;227;65207;-76
2023/12/14 08:01:37;;;;;;;;;;;;;;;19.46;48.07;96001.14;624071;227;62544;-74
2023/12/14 08:04:04;;;;;;;;;;;;;;;19.48;48.04;96009.65;624115;227;63932;-74
2023/12/14 08:06:32;;;;;;;;;;;;;;;19.44;48.07;96004.08;624038;227;65022;-72
2023/12/14 08:08:59;;;;;;;;;;;;;;;19.48;48.10;96031.75;624060;227;64431;-72
2023/12/14 08:11:28;;;;;;;;;;;;;;;19.46;48.14;96033.91;624218;227;63065;-73
2023/12/14 08:13:55;;;;;;;;;;;;;;;19.47;48.27;96040.81;624099;227;64819;-70
2023/12/14 08:16:23;;;;;;;;;;;;;;;19.48;48.29;96047.74;624086;227;64569;-70
2023/12/14 08:18:50;;;;;;;;;;;;;;;19.48;48.22;96047.74;624132;227;65799;-71
2023/12/14 08:21:18;;;;;;;;;;;;;;;19.46;48.15;96047.23;624047;227;65593;-70
2023/12/14 08:23:46;;;;;;;;;;;;;;;19.46;48.09;96059.76;624159;227;63533;-69
2023/12/14 08:26:13;;;;;;;;;;;;;;;19.46;48.05;96068.54;624167;227;63116;-71
2023/12/14 08:28:41;;;;;;;;;;;;;;;19.49;48.01;96081.30;623491;227;65249;-71
2023/12/14 08:31:10;;;;;;;;;;;;;;;19.48;48.03;96084.27;618911;229;64702;-70
2023/12/14 08:33:38;;;;;;;;;;;;;;;19.45;48.05;96079.47;618870;229;63124;-70
2023/12/14 08:36:05;;;;;;;;;;;;;;;19.48;48.05;96081.59;618808;229;62763;-69
2023/12/14 08:38:33;;;;;;;;;;;;;;;19.49;48.05;96091.17;618954;229;62502;-69
2023/12/14 08:41:00;;;;;;;;;;;;;;;19.48;48.05;96098.37;618896;229;62623;-70
2023/12/14 08:43:28;;;;;;;;;;;;;;;19.48;48.06;96097.58;618808;229;63039;-71
2023/12/14 08:45:55;;;;;;;;;;;;;;;19.48;48.03;96103.70;618885;229;62556;-70
2023/12/14 08:48:23;;;;;;;;;;;;;;;19.48;48.01;96090.37;618843;229;63909;-69
2023/12/14 08:50:52;;;;;;;;;;;;;;;19.49;48.02;96101.83;618882;229;62720;-70
2023/12/14 08:53:20;;;;;;;;;;;;;;;19.48;48.03;96110.91;618915;229;62455;-71
2023/12/14 08:55:47;;;;;;;;;;;;;;;19.48;47.98;96100.25;618834;229;65245;-71
2023/12/14 08:58:15;;;;;;;;;;;;;;;19.47;48.04;96111.97;618855;229;64791;-70
2023/12/14 09:00:42;;;;;;;;;;;;;;;19.49;48.03;96117.81;618859;229;62169;-69
2023/12/14 09:03:10;;;;;;;;;;;;;;;19.50;48.03;96127.38;618821;229;63059;-69
2023/12/14 09:05:37;;;;;;;;;;;;;;;19.50;48.09;96114.06;618860;229;63025;-74
2023/12/14 09:08:05;;;;;;;;;;;;;;;19.51;48.09;96127.12;618878;229;62508;-71
2023/12/14 09:10:32;;;;;;;;;;;;;;;19.50;48.17;96124.72;618772;229;63119;-72
2023/12/14 09:13:03;;;;;;;;;;;;;;;19.50;48.19;96130.05;618881;229;64970;-74
2023/12/14 09:15:29;;;;;;;;;;;;;;;19.50;48.22;96136.17;612326;228;62438;-71
2023/12/14 09:17:56;;;;;;;;;;;;;;;19.52;48.15;96141.23;611782;232;66289;-68
2023/12/14 09:20:24;;;;;;;;;;;;;;;19.50;48.09;96138.83;611853;232;65112;-70
2023/12/14 09:22:51;;;;;;;;;;;;;;;19.50;48.05;96133.50;611917;232;64544;-71
2023/12/14 09:25:19;;;;;;;;;;;;;;;19.50;48.04;96130.84;611836;232;65413;-71
2023/12/14 09:27:46;;;;;;;;;;;;;;;19.51;47.98;96126.33;611936;232;62522;-69
2023/12/14 09:30:14;;;;;;;;;;;;;;;19.55;48.76;96131.88;611793;230;64620;-72
2023/12/14 09:32:43;;;;;;;;;;;;;;;19.53;48.25;96137.47;611761;232;66394;-72
2023/12/14 09:35:11;;;;;;;;;;;;;;;19.50;48.08;96120.18;611870;232;65644;-72
2023/12/14 09:37:38;;;;;;;;;;;;;;;19.49;48.05;96118.60;613931;229;64542;-72
2023/12/14 09:40:08;;;;;;;;;;;;;;;19.53;48.11;96129.48;615218;229;65412;-71
2023/12/14 09:42:37;;;;;;;;;;;;;;;19.51;48.12;96126.33;615587;229;63162;-69
2023/12/14 09:45:05;;;;;;;;;;;;;;;19.51;48.12;96124.45;619485;229;62441;-73
2023/12/14 09:47:33;;;;;;;;;;;;;;;19.51;48.15;96111.13;618805;229;65578;-70
2023/12/14 09:50:00;;;;;;;;;;;;;;;19.53;48.11;96118.82;618900;229;66020;-71
2023/12/14 09:52:28;;;;;;;;;;;;;;;19.50;48.13;96124.72;618804;229;62451;-70
2023/12/14 09:54:55;;;;;;;;;;;;;;;19.52;48.12;96125.23;617114;229;62621;-71
2023/12/14 09:57:25;;;;;;;;;;;;;;;19.52;48.15;96106.58;619117;229;63772;-71
2023/12/14 09:59:53;;;;;;;;;;;;;;;19.49;48.13;96107.16;626758;226;64628;-71
2023/12/14 10:02:20;;;;;;;;;;;;;;;19.49;48.12;96107.94;618773;229;66398;-74
2023/12/14 10:04:47;;;;;;;;;;;;;;;19.51;48.16;96107.67;618880;229;64979;-72
2023/12/14 10:07:16;;;;;;;;;;;;;;;19.51;48.13;96115.67;618838;229;64555;-70
2023/12/14 10:09:44;;;;;;;;;;;;;;;19.50;48.11;96103.41;618877;229;64058;-71
2023/12/14 10:12:12;;;;;;;;;;;;;;;19.49;48.10;96107.94;618883;229;65036;-71
2023/12/14 10:14:39;;;;;;;;;;;;;;;19.51;48.07;96113.00;618826;229;64839;-71
2023/12/14 10:17:21;;;;;;;;;;;;;;;19.50;48.01;96120.18;618903;229;65485;-72
2023/12/14 10:19:49;;;;;;;;;;;;;;;19.49;48.04;96113.27;618869;229;65098;-71
2023/12/14 10:22:18;;;;;;;;;;;;;;;19.52;48.06;96122.58;618796;229;64787;-71
2023/12/14 10:24:47;;;;;;;;;;;;;;;19.50;48.03;96130.05;618850;229;64449;-72
2023/12/14 10:27:16;;;;;;;;;;;;;;;19.49;48.00;96113.27;618877;229;62826;-71
2023/12/14 10:29:45;;;;;;;;;;;;;;;19.50;47.96;96124.72;618534;227;64592;-71
2023/12/14 10:32:13;;;;;;;;;;;;;;;19.51;47.95;96126.33;618855;229;64089;-71
2023/12/14 10:34:41;;;;;;;;;;;;;;;19.51;47.94;96121.78;616073;229;64972;-71
2023/12/14 10:37:09;;;;;;;;;;;;;;;19.52;47.93;96122.58;615970;229;64715;-71
2023/12/14 10:39:38;;;;;;;;;;;;;;;19.50;47.91;96125.51;615230;229;63926;-71
2023/12/14 10:42:06;;;;;;;;;;;;;;;19.54;47.92;96130.30;614993;229;62801;-71
2023/12/14 10:44:35;;;;;;;;;;;;;;;19.52;47.94;96135.90;616193;229;62547;-71
2023/12/14 10:47:04;;;;;;;;;;;;;;;19.52;47.96;96134.02;618803;229;65460;-71
2023/12/14 10:49:31;;;;;;;;;;;;;;;19.51;48.01;96123.66;618827;229;65559;-71
2023/12/14 10:52:00;;;;;;;;;;;;;;;19.52;48.02;96141.23;623775;226;63395;-72
2023/12/14 10:54:29;;;;;;;;;;;;;;;19.51;48.02;96143.11;623644;226;65411;-72
2023/12/14 10:56:57;;;;;;;;;;;;;;;19.52;48.02;96133.23;614845;229;64868;-71
2023/12/14 10:59:25;;;;;;;;;;;;;;;19.52;48.04;96135.90;615401;229;62430;-72
2023/12/14 11:01:53;;;;;;;;;;;;;;;19.50;48.03;96132.72;615141;229;63122;-71
2023/12/14 11:04:24;;;;;;;;;;;;;;;19.53;48.05;96134.81;614731;229;62964;-71
2023/12/14 11:06:54;;;;;;;;;;;;;;;19.51;48.05;96134.32;615251;229;62677;-72
2023/12/14 11:09:24;;;;;;;;;;;;;;;19.53;48.08;96145.47;615308;229;63019;-72
2023/12/14 11:12:03;;;;;;;;;;;;;;;19.52;48.09;96142.02;624805;226;65225;-71
2023/12/14 11:14:26;;;;;;;;;;;;;;;19.51;48.11;96136.98;623340;227;64543;-71
2023/12/14 11:16:58;;;;;;;;;;;;;;;19.51;48.10;96144.98;619765;229;65453;-71
2023/12/14 11:19:28;;;;;;;;;;;;;;;19.52;48.13;96150.02;618781;228;64769;-69
2023/12/14 11:21:57;;;;;;;;;;;;;;;19.55;48.15;96155.86;618876;229;64861;-71
2023/12/14 11:24:25;;;;;;;;;;;;;;;19.53;48.20;96150.80;618845;229;66424;-71
2023/12/14 11:26:55;;;;;;;;;;;;;;;19.51;48.18;96142.31;615196;229;62969;-71
2023/12/14 11:29:23;;;;;;;;;;;;;;;19.54;48.18;96163.06;612628;231;64755;-72
2023/12/14 11:31:51;;;;;;;;;;;;;;;19.52;48.17;96159.88;616960;230;63031;-70
2023/12/14 11:34:18;;;;;;;;;;;;;;;19.53;48.21;96156.12;616784;230;62822;-70
2023/12/14 11:36:47;;;;;;;;;;;;;;;19.54;48.22;96165.73;617003;230;64642;-73
2023/12/14 11:39:15;;;;;;;;;;;;;;;19.54;48.22;96164.95;616963;230;63093;-71
2023/12/14 11:41:42;;;;;;;;;;;;;;;19.55;48.24;96163.86;617039;230;63926;-71
2023/12/14 11:44:10;;;;;;;;;;;;;;;19.54;48.21;96162.28;617049;230;64664;-71
2023/12/14 11:46:37;;;;;;;;;;;;;;;19.55;48.22;96156.65;616972;230;62875;-70
2023/12/14 11:49:05;;;;;;;;;;;;;;;19.55;48.23;96169.98;617051;230;62933;-69
2023/12/14 11:51:34;;;;;;;;;;;;;;;19.55;48.25;96174.52;617026;230;62595;-70
2023/12/14 11:54:02;;;;;;;;;;;;;;;19.54;48.27;96184.39;616979;230;65519;-71
2023/12/14 11:56:30;;;;;;;;;;;;;;;19.52;48.28;96186.53;617022;230;64957;-70
2023/12/14 11:58:58;;;;;;;;;;;;;;;19.55;48.30;96190.51;617015;230;62214;-70
2023/12/14 12:01:28;;;;;;;;;;;;;;;19.57;48.32;96204.36;616993;230;63029;-71
2023/12/14 12:03:55;;;;;;;;;;;;;;;19.53;48.34;96198.77;617041;230;63635;-70
2023/12/14 12:06:30;;;;;;;;;;;;;;;19.51;48.35;96206.27;617006;230;64556;-71
2023/12/14 12:08:58;;;;;;;;;;;;;;;19.54;48.36;96213.70;617048;230;65725;-71
2023/12/14 12:11:27;;;;;;;;;;;;;;;19.54;48.38;96210.25;617036;230;65063;-71
2023/12/14 12:13:56;;;;;;;;;;;;;;;19.53;48.41;96204.10;617037;230;64554;-71
2023/12/14 12:16:23;;;;;;;;;;;;;;;19.56;48.41;96203.56;616980;230;63121;-71
2023/12/14 12:18:51;;;;;;;;;;;;;;;19.52;48.42;96186.53;617017;230;63898;-71
2023/12/14 12:21:19;;;;;;;;;;;;;;;19.53;48.42;96190.77;617060;230;64907;-72
2023/12/14 12:23:46;;;;;;;;;;;;;;;19.54;48.41;96195.05;616979;230;65027;-71
2023/12/14 12:26:15;;;;;;;;;;;;;;;19.55;48.48;96191.30;617057;230;65198;-72
2023/12/14 12:28:42;;;;;;;;;;;;;;;19.55;48.64;96199.30;616943;230;64372;-71
2023/12/14 12:31:10;;;;;;;;;;;;;;;19.56;48.85;96203.56;616996;230;65743;-72
2023/12/14 12:33:37;;;;;;;;;;;;;;;19.56;48.99;96200.08;617012;230;66244;-72
2023/12/14 12:36:05;;;;;;;;;;;;;;;19.54;49.02;96196.92;616952;230;62543;-74
2023/12/14 12:38:33;;;;;;;;;;;;;;;19.56;49.05;96200.08;616943;230;65734;-71
2023/12/14 12:41:01;;;;;;;;;;;;;;;19.54;49.08;96205.70;616900;230;62914;-73
2023/12/14 12:43:29;;;;;;;;;;;;;;;19.54;49.06;96204.92;616872;230;65745;-71
2023/12/14 12:45:58;;;;;;;;;;;;;;;19.55;49.10;96203.83;616929;230;65404;-67
2023/12/14 12:48:26;;;;;;;;;;;;;;;19.55;49.13;96207.28;617020;230;62697;-68
2023/12/14 12:50:54;;;;;;;;;;;;;;;19.56;49.19;96205.41;616942;230;64741;-69